sensor_id;sensor_type;location;lat;lon;timestamp;pressure;altitude;pressure_sealevel;temperature;humidity
73332;BME280;61560;33.718;73.040;2023-05-01T00:01:54;94218.56;;;22.85;53.75
73332;BME280;61560;33.718;73.040;2023-05-01T00:04:20;94222.13;;;22.86;53.45
73332;BME280;61560;33.718;73.040;2023-05-01T00:06:47;94219.34;;;22.80;53.49
73332;BME280;61560;33.718;73.040;2023-05-01T00:09:14;94218.06;;;22.81;54.17
73332;BME280;61560;33.718;73.040;2023-05-01T00:11:40;94217.03;;;22.78;53.94
73332;BME280;61560;33.718;73.040;2023-05-01T00:14:07;94205.91;;;22.84;53.50
73332;BME280;61560;33.718;73.040;2023-05-01T00:16:33;94216.31;;;22.84;53.67
73332;BME280;61560;33.718;73.040;2023-05-01T00:19:01;94223.41;;;22.79;54.26
73332;BME280;61560;33.718;73.040;2023-05-01T00:21:28;94224.16;;;22.79;54.53
73332;BME280;61560;33.718;73.040;2023-05-01T00:23:56;94234.81;;;22.81;54.21
73332;BME280;61560;33.718;73.040;2023-05-01T00:26:22;94237.63;;;22.81;54.38
73332;BME280;61560;33.718;73.040;2023-05-01T00:28:53;94236.84;;;22.75;54.69
73332;BME280;61560;33.718;73.040;2023-05-01T00:31:19;94233.53;;;22.65;55.06
73332;BME280;61560;33.718;73.040;2023-05-01T00:33:47;94239.13;;;22.71;55.35
73332;BME280;61560;33.718;73.040;2023-05-01T00:36:14;94247.50;;;22.71;55.69
73332;BME280;61560;33.718;73.040;2023-05-01T00:38:40;94245.75;;;22.68;55.93
73332;BME280;61560;33.718;73.040;2023-05-01T00:41:07;94254.13;;;22.68;55.73
73332;BME280;61560;33.718;73.040;2023-05-01T00:43:34;94250.03;;;22.63;55.69
73332;BME280;61560;33.718;73.040;2023-05-01T00:46:01;94258.63;;;22.60;55.99
73332;BME280;61560;33.718;73.040;2023-05-01T00:48:29;94270.56;;;22.60;56.12
73332;BME280;61560;33.718;73.040;2023-05-01T00:50:57;94277.94;;;22.63;56.09
73332;BME280;61560;33.718;73.040;2023-05-01T00:53:24;94290.88;;;22.61;56.31
73332;BME280;61560;33.718;73.040;2023-05-01T00:55:53;94299.00;;;22.59;56.62
73332;BME280;61560;33.718;73.040;2023-05-01T00:58:22;94316.22;;;22.57;57.31
73332;BME280;61560;33.718;73.040;2023-05-01T01:00:51;94325.34;;;22.52;57.27
73332;BME280;61560;33.718;73.040;2023-05-01T01:03:18;94332.91;;;22.46;57.62
73332;BME280;61560;33.718;73.040;2023-05-01T01:05:56;94336.94;;;22.40;58.08
73332;BME280;61560;33.718;73.040;2023-05-01T01:08:29;94335.69;;;22.41;58.21
73332;BME280;61560;33.718;73.040;2023-05-01T01:12:05;94345.81;;;22.38;58.13
73332;BME280;61560;33.718;73.040;2023-05-01T01:14:23;94346.34;;;22.37;58.28
73332;BME280;61560;33.718;73.040;2023-05-01T01:16:55;94346.06;;;22.35;58.59
73332;BME280;61560;33.718;73.040;2023-05-01T01:22:11;94362.84;;;22.40;58.43
73332;BME280;61560;33.718;73.040;2023-05-01T01:41:39;94389.13;;;23.46;56.30
73332;BME280;61560;33.718;73.040;2023-05-01T01:44:37;94395.72;;;23.54;56.32
73332;BME280;61560;33.718;73.040;2023-05-01T01:47:05;94394.72;;;23.85;55.30
73332;BME280;61560;33.718;73.040;2023-05-01T01:49:36;94391.88;;;24.29;54.10
73332;BME280;61560;33.718;73.040;2023-05-01T01:52:05;94396.59;;;24.84;52.74
73332;BME280;61560;33.718;73.040;2023-05-01T01:54:37;94401.19;;;25.33;51.44
73332;BME280;61560;33.718;73.040;2023-05-01T01:57:06;94395.47;;;25.55;51.04
73332;BME280;61560;33.718;73.040;2023-05-01T01:59:35;94409.47;;;25.61;50.61
73332;BME280;61560;33.718;73.040;2023-05-01T02:02:03;94417.69;;;25.48;50.10
73332;BME280;61560;33.718;73.040;2023-05-01T02:04:31;94426.56;;;25.57;50.14
73332;BME280;61560;33.718;73.040;2023-05-01T02:06:58;94425.44;;;26.07;49.33
73332;BME280;61560;33.718;73.040;2023-05-01T02:09:30;94431.13;;;26.55;48.18
73332;BME280;61560;33.718;73.040;2023-05-01T02:11:58;94439.47;;;26.90;47.37
73332;BME280;61560;33.718;73.040;2023-05-01T02:14:26;94442.38;;;27.03;46.39
73332;BME280;61560;33.718;73.040;2023-05-01T02:16:54;94447.56;;;27.42;46.10
73332;BME280;61560;33.718;73.040;2023-05-01T02:19:25;94444.22;;;27.62;45.10
73332;BME280;61560;33.718;73.040;2023-05-01T02:21:54;94449.16;;;27.75;45.06
73332;BME280;61560;33.718;73.040;2023-05-01T02:24:24;94446.44;;;28.19;44.45
73332;BME280;61560;33.718;73.040;2023-05-01T02:26:55;94453.00;;;28.41;44.22
73332;BME280;61560;33.718;73.040;2023-05-01T02:29:23;94462.78;;;28.53;43.75
73332;BME280;61560;33.718;73.040;2023-05-01T02:31:50;94471.75;;;28.83;43.26
73332;BME280;61560;33.718;73.040;2023-05-01T02:34:17;94476.19;;;28.91;42.50
73332;BME280;61560;33.718;73.040;2023-05-01T02:36:44;94483.41;;;29.19;42.21
73332;BME280;61560;33.718;73.040;2023-05-01T02:39:11;94494.66;;;29.32;41.96
73332;BME280;61560;33.718;73.040;2023-05-01T02:41:38;94494.91;;;29.21;41.55
73332;BME280;61560;33.718;73.040;2023-05-01T02:44:10;94500.53;;;29.47;41.23
73332;BME280;61560;33.718;73.040;2023-05-01T02:46:39;94495.88;;;29.36;41.22
73332;BME280;61560;33.718;73.040;2023-05-01T02:49:09;94497.81;;;29.28;41.47
73332;BME280;61560;33.718;73.040;2023-05-01T02:51:37;94508.13;;;29.26;41.84
73332;BME280;61560;33.718;73.040;2023-05-01T02:54:06;94501.84;;;29.20;41.70
73332;BME280;61560;33.718;73.040;2023-05-01T02:56:34;94501.28;;;29.21;42.08
73332;BME280;61560;33.718;73.040;2023-05-01T02:59:01;94508.97;;;29.07;41.83
73332;BME280;61560;33.718;73.040;2023-05-01T03:01:27;94528.13;;;28.51;43.52
73332;BME280;61560;33.718;73.040;2023-05-01T03:03:54;94520.91;;;28.05;44.19
73332;BME280;61560;33.718;73.040;2023-05-01T03:06:21;94540.13;;;27.64;45.08
73332;BME280;61560;33.718;73.040;2023-05-01T03:08:47;94540.03;;;27.03;46.79
73332;BME280;61560;33.718;73.040;2023-05-01T03:11:14;94545.16;;;26.69;47.70
73332;BME280;61560;33.718;73.040;2023-05-01T03:13:41;94555.53;;;26.20;48.66
73332;BME280;61560;33.718;73.040;2023-05-01T03:16:08;94559.41;;;26.06;49.18
73332;BME280;61560;33.718;73.040;2023-05-01T03:18:35;94562.66;;;25.75;50.01
73332;BME280;61560;33.718;73.040;2023-05-01T03:21:01;94565.81;;;25.49;50.30
73332;BME280;61560;33.718;73.040;2023-05-01T03:23:29;94578.09;;;25.30;50.93
73332;BME280;61560;33.718;73.040;2023-05-01T03:25:55;94580.44;;;25.09;51.39
73332;BME280;61560;33.718;73.040;2023-05-01T03:28:22;94579.44;;;24.90;52.19
73332;BME280;61560;33.718;73.040;2023-05-01T03:30:51;94580.22;;;24.68;52.89
73332;BME280;61560;33.718;73.040;2023-05-01T03:33:18;94575.63;;;24.71;52.73
73332;BME280;61560;33.718;73.040;2023-05-01T03:35:45;94579.47;;;24.95;52.36
73332;BME280;61560;33.718;73.040;2023-05-01T03:38:12;94577.06;;;25.38;51.16
73332;BME280;61560;33.718;73.040;2023-05-01T03:41:08;94586.03;;;25.88;49.47
73332;BME280;61560;33.718;73.040;2023-05-01T03:43:48;94580.91;;;26.39;48.86
73332;BME280;61560;33.718;73.040;2023-05-01T03:46:29;94589.22;;;26.55;47.76
73332;BME280;61560;33.718;73.040;2023-05-01T03:48:58;94592.81;;;26.15;48.46
73332;BME280;61560;33.718;73.040;2023-05-01T03:51:25;94595.91;;;26.12;48.68
73332;BME280;61560;33.718;73.040;2023-05-01T03:53:54;94588.34;;;26.71;47.57
73332;BME280;61560;33.718;73.040;2023-05-01T03:56:25;94598.56;;;27.77;44.73
73332;BME280;61560;33.718;73.040;2023-05-01T03:58:52;94599.59;;;28.16;43.40
73332;BME280;61560;33.718;73.040;2023-05-01T04:01:20;94599.56;;;27.55;44.70
73332;BME280;61560;33.718;73.040;2023-05-01T04:03:47;94611.72;;;26.85;46.02
73332;BME280;61560;33.718;73.040;2023-05-01T04:06:16;94612.72;;;26.58;47.17
73332;BME280;61560;33.718;73.040;2023-05-01T04:08:43;94613.66;;;26.71;46.32
73332;BME280;61560;33.718;73.040;2023-05-01T04:11:10;94610.69;;;26.88;46.10
73332;BME280;61560;33.718;73.040;2023-05-01T04:13:36;94607.94;;;27.36;45.24
73332;BME280;61560;33.718;73.040;2023-05-01T04:16:04;94606.50;;;28.53;42.96
73332;BME280;61560;33.718;73.040;2023-05-01T04:18:31;94592.28;;;29.79;39.70
73332;BME280;61560;33.718;73.040;2023-05-01T04:20:58;94602.81;;;30.86;37.39
73332;BME280;61560;33.718;73.040;2023-05-01T04:23:25;94585.97;;;31.21;37.12
73332;BME280;61560;33.718;73.040;2023-05-01T04:25:56;94583.16;;;31.78;35.41
73332;BME280;61560;33.718;73.040;2023-05-01T04:28:22;94585.09;;;31.83;35.03
73332;BME280;61560;33.718;73.040;2023-05-01T04:30:49;94590.78;;;31.90;35.05
73332;BME280;61560;33.718;73.040;2023-05-01T04:33:16;94581.22;;;32.01;34.32
73332;BME280;61560;33.718;73.040;2023-05-01T04:35:43;94594.56;;;31.16;35.51
73332;BME280;61560;33.718;73.040;2023-05-01T04:38:09;94588.28;;;30.22;36.79
73332;BME280;61560;33.718;73.040;2023-05-01T04:40:38;94588.66;;;29.53;37.71
73332;BME280;61560;33.718;73.040;2023-05-01T04:43:04;94588.22;;;28.91;39.36
73332;BME280;61560;33.718;73.040;2023-05-01T04:45:32;94592.72;;;27.93;41.32
73332;BME280;61560;33.718;73.040;2023-05-01T04:47:59;94591.88;;;27.55;42.43
73332;BME280;61560;33.718;73.040;2023-05-01T04:50:26;94590.09;;;27.34;43.15
73332;BME280;61560;33.718;73.040;2023-05-01T04:52:52;94587.75;;;27.32;42.90
73332;BME280;61560;33.718;73.040;2023-05-01T04:55:20;94593.63;;;27.40;43.17
73332;BME280;61560;33.718;73.040;2023-05-01T04:58:13;94597.47;;;27.37;43.67
73332;BME280;61560;33.718;73.040;2023-05-01T05:00:40;94598.69;;;27.41;43.49
73332;BME280;61560;33.718;73.040;2023-05-01T05:03:09;94591.53;;;27.40;42.81
73332;BME280;61560;33.718;73.040;2023-05-01T05:05:36;94591.03;;;27.42;42.86
73332;BME280;61560;33.718;73.040;2023-05-01T05:08:05;94590.34;;;27.36;42.44
73332;BME280;61560;33.718;73.040;2023-05-01T05:10:36;94597.81;;;26.98;43.61
73332;BME280;61560;33.718;73.040;2023-05-01T05:13:16;94607.75;;;26.69;44.02
73332;BME280;61560;33.718;73.040;2023-05-01T05:15:43;94608.47;;;26.40;44.48
73332;BME280;61560;33.718;73.040;2023-05-01T05:18:11;94608.16;;;26.03;45.56
73332;BME280;61560;33.718;73.040;2023-05-01T05:20:38;94611.91;;;25.65;46.10
73332;BME280;61560;33.718;73.040;2023-05-01T05:23:05;94605.34;;;25.46;46.25
73332;BME280;61560;33.718;73.040;2023-05-01T05:25:31;94607.44;;;25.29;46.55
73332;BME280;61560;33.718;73.040;2023-05-01T05:27:58;94606.38;;;25.43;47.27
73332;BME280;61560;33.718;73.040;2023-05-01T05:30:26;94600.50;;;26.09;45.77
73332;BME280;61560;33.718;73.040;2023-05-01T05:32:53;94597.84;;;26.28;46.00
73332;BME280;61560;33.718;73.040;2023-05-01T05:35:21;94605.84;;;26.13;46.67
73332;BME280;61560;33.718;73.040;2023-05-01T05:37:49;94603.63;;;25.89;46.76
73332;BME280;61560;33.718;73.040;2023-05-01T05:40:15;94609.13;;;25.54;46.72
73332;BME280;61560;33.718;73.040;2023-05-01T05:42:53;94612.03;;;25.09;47.96
73332;BME280;61560;33.718;73.040;2023-05-01T05:45:23;94586.84;;;24.87;48.66
73332;BME280;61560;33.718;73.040;2023-05-01T05:47:49;94591.13;;;25.10;48.37
73332;BME280;61560;33.718;73.040;2023-05-01T05:50:17;94581.22;;;25.83;47.21
73332;BME280;61560;33.718;73.040;2023-05-01T05:52:45;94579.00;;;26.23;46.91
73332;BME280;61560;33.718;73.040;2023-05-01T05:55:15;94578.13;;;26.39;46.63
73332;BME280;61560;33.718;73.040;2023-05-01T05:57:55;94565.03;;;27.30;44.92
73332;BME280;61560;33.718;73.040;2023-05-01T06:00:22;94562.59;;;28.07;42.82
73332;BME280;61560;33.718;73.040;2023-05-01T06:02:50;94562.78;;;28.46;42.12
73332;BME280;61560;33.718;73.040;2023-05-01T06:05:18;94567.59;;;28.32;42.66
73332;BME280;61560;33.718;73.040;2023-05-01T06:07:45;94563.56;;;28.47;43.42
73332;BME280;61560;33.718;73.040;2023-05-01T06:10:12;94552.31;;;28.28;43.52
73332;BME280;61560;33.718;73.040;2023-05-01T06:12:39;94555.06;;;27.96;44.75
73332;BME280;61560;33.718;73.040;2023-05-01T06:15:08;94555.34;;;27.74;45.63
73332;BME280;61560;33.718;73.040;2023-05-01T06:17:42;94545.59;;;27.57;46.06
73332;BME280;61560;33.718;73.040;2023-05-01T06:20:12;94546.34;;;27.33;47.26
73332;BME280;61560;33.718;73.040;2023-05-01T06:22:39;94544.09;;;27.07;46.88
73332;BME280;61560;33.718;73.040;2023-05-01T06:25:14;94539.44;;;26.56;48.03
73332;BME280;61560;33.718;73.040;2023-05-01T06:27:43;94542.63;;;26.36;48.30
73332;BME280;61560;33.718;73.040;2023-05-01T06:30:10;94544.22;;;26.31;49.03
73332;BME280;61560;33.718;73.040;2023-05-01T06:32:41;94552.34;;;26.35;49.54
73332;BME280;61560;33.718;73.040;2023-05-01T06:35:09;94554.31;;;26.10;50.38
73332;BME280;61560;33.718;73.040;2023-05-01T06:37:36;94549.06;;;25.90;50.45
73332;BME280;61560;33.718;73.040;2023-05-01T06:40:06;94550.88;;;25.82;50.83
73332;BME280;61560;33.718;73.040;2023-05-01T06:42:39;94534.38;;;25.67;50.89
73332;BME280;61560;33.718;73.040;2023-05-01T06:45:06;94550.41;;;25.72;50.59
73332;BME280;61560;33.718;73.040;2023-05-01T06:47:33;94540.44;;;25.77;49.97
73332;BME280;61560;33.718;73.040;2023-05-01T06:50:00;94541.22;;;25.77;50.32
73332;BME280;61560;33.718;73.040;2023-05-01T06:52:27;94536.91;;;25.71;50.11
73332;BME280;61560;33.718;73.040;2023-05-01T06:54:54;94536.97;;;25.54;50.51
73332;BME280;61560;33.718;73.040;2023-05-01T06:57:20;94539.56;;;25.47;50.73
73332;BME280;61560;33.718;73.040;2023-05-01T06:59:47;94542.16;;;25.23;51.60
73332;BME280;61560;33.718;73.040;2023-05-01T07:02:13;94536.13;;;25.07;51.77
73332;BME280;61560;33.718;73.040;2023-05-01T07:04:45;94523.91;;;24.94;52.05
73332;BME280;61560;33.718;73.040;2023-05-01T07:07:12;94523.94;;;24.88;53.20
73332;BME280;61560;33.718;73.040;2023-05-01T07:09:40;94543.78;;;24.90;53.02
73332;BME280;61560;33.718;73.040;2023-05-01T07:12:07;94538.22;;;24.79;53.67
73332;BME280;61560;33.718;73.040;2023-05-01T07:14:34;94545.31;;;24.69;54.23
73332;BME280;61560;33.718;73.040;2023-05-01T07:17:07;94555.50;;;24.61;54.92
73332;BME280;61560;33.718;73.040;2023-05-01T07:19:42;94560.09;;;24.48;56.15
73332;BME280;61560;33.718;73.040;2023-05-01T07:22:08;94562.91;;;24.36;60.39
73332;BME280;61560;33.718;73.040;2023-05-01T07:24:35;94567.72;;;24.19;62.69
73332;BME280;61560;33.718;73.040;2023-05-01T07:27:01;94577.31;;;23.96;64.23
73332;BME280;61560;33.718;73.040;2023-05-01T07:29:29;94580.13;;;23.91;64.40
73332;BME280;61560;33.718;73.040;2023-05-01T07:31:55;94589.50;;;23.88;65.33
73332;BME280;61560;33.718;73.040;2023-05-01T07:34:22;94588.66;;;23.65;64.22
73332;BME280;61560;33.718;73.040;2023-05-01T07:36:48;94588.88;;;23.50;64.18
73332;BME280;61560;33.718;73.040;2023-05-01T07:39:15;94583.72;;;23.32;64.54
73332;BME280;61560;33.718;73.040;2023-05-01T07:41:42;94589.75;;;23.25;65.56
73332;BME280;61560;33.718;73.040;2023-05-01T07:44:10;94574.47;;;23.21;66.96
73332;BME280;61560;33.718;73.040;2023-05-01T07:46:36;94575.72;;;23.20;66.84
73332;BME280;61560;33.718;73.040;2023-05-01T07:49:06;94569.88;;;23.18;66.27
73332;BME280;61560;33.718;73.040;2023-05-01T07:51:32;94567.84;;;23.18;66.63
73332;BME280;61560;33.718;73.040;2023-05-01T07:54:00;94566.59;;;23.19;67.72
73332;BME280;61560;33.718;73.040;2023-05-01T07:56:29;94565.06;;;23.18;67.42
73332;BME280;61560;33.718;73.040;2023-05-01T07:58:56;94560.69;;;23.06;67.27
73332;BME280;61560;33.718;73.040;2023-05-01T08:01:23;94570.84;;;23.09;70.02
73332;BME280;61560;33.718;73.040;2023-05-01T08:03:50;94568.84;;;23.15;70.96
73332;BME280;61560;33.718;73.040;2023-05-01T08:06:16;94575.72;;;23.20;71.26
73332;BME280;61560;33.718;73.040;2023-05-01T08:08:43;94570.66;;;23.18;70.60
73332;BME280;61560;33.718;73.040;2023-05-01T08:11:10;94582.63;;;23.24;69.19
73332;BME280;61560;33.718;73.040;2023-05-01T08:13:38;94566.13;;;23.26;68.39
73332;BME280;61560;33.718;73.040;2023-05-01T08:16:04;94559.75;;;23.26;68.17
73332;BME280;61560;33.718;73.040;2023-05-01T08:18:31;94561.81;;;23.25;69.08
73332;BME280;61560;33.718;73.040;2023-05-01T08:20:57;94566.13;;;23.26;70.44
73332;BME280;61560;33.718;73.040;2023-05-01T08:23:25;94574.25;;;23.30;72.76
73332;BME280;61560;33.718;73.040;2023-05-01T08:25:51;94555.00;;;23.32;71.65
73332;BME280;61560;33.718;73.040;2023-05-01T08:28:18;94556.81;;;23.40;70.25
73332;BME280;61560;33.718;73.040;2023-05-01T08:30:47;94549.00;;;23.55;68.74
73332;BME280;61560;33.718;73.040;2023-05-01T08:33:18;94537.81;;;23.67;66.34
73332;BME280;61560;33.718;73.040;2023-05-01T08:35:44;94538.66;;;23.95;66.23
73332;BME280;61560;33.718;73.040;2023-05-01T08:38:11;94532.09;;;24.14;65.69
73332;BME280;61560;33.718;73.040;2023-05-01T08:40:40;94531.06;;;24.12;64.49
73332;BME280;61560;33.718;73.040;2023-05-01T08:43:09;94510.47;;;24.37;65.81
73332;BME280;61560;33.718;73.040;2023-05-01T08:45:38;94512.22;;;24.68;63.96
73332;BME280;61560;33.718;73.040;2023-05-01T08:48:06;94498.22;;;24.84;63.15
73332;BME280;61560;33.718;73.040;2023-05-01T08:50:35;94494.16;;;24.85;64.29
73332;BME280;61560;33.718;73.040;2023-05-01T08:53:04;94484.47;;;24.81;62.58
73332;BME280;61560;33.718;73.040;2023-05-01T08:55:32;94481.16;;;24.82;62.82
73332;BME280;61560;33.718;73.040;2023-05-01T08:58:03;94469.94;;;24.82;62.98
73332;BME280;61560;33.718;73.040;2023-05-01T09:00:33;94467.63;;;24.86;62.84
73332;BME280;61560;33.718;73.040;2023-05-01T09:03:01;94475.78;;;24.95;62.41
73332;BME280;61560;33.718;73.040;2023-05-01T09:05:31;94466.53;;;25.11;63.21
73332;BME280;61560;33.718;73.040;2023-05-01T09:07:58;94465.97;;;25.24;60.70
73332;BME280;61560;33.718;73.040;2023-05-01T09:10:26;94469.28;;;25.28;59.43
73332;BME280;61560;33.718;73.040;2023-05-01T09:12:57;94460.13;;;25.22;58.47
73332;BME280;61560;33.718;73.040;2023-05-01T09:15:26;94447.13;;;25.19;60.10
73332;BME280;61560;33.718;73.040;2023-05-01T09:17:54;94449.47;;;25.09;56.85
73332;BME280;61560;33.718;73.040;2023-05-01T09:20:23;94438.78;;;25.02;56.45
73332;BME280;61560;33.718;73.040;2023-05-01T09:22:50;94430.88;;;25.06;55.75
73332;BME280;61560;33.718;73.040;2023-05-01T09:25:17;94434.66;;;25.14;55.63
73332;BME280;61560;33.718;73.040;2023-05-01T09:27:44;94433.13;;;25.19;55.95
73332;BME280;61560;33.718;73.040;2023-05-01T09:33:08;94417.75;;;25.37;53.53
73332;BME280;61560;33.718;73.040;2023-05-01T09:38:22;94413.72;;;25.27;53.81
73332;BME280;61560;33.718;73.040;2023-05-01T09:40:51;94413.16;;;25.34;53.81
73332;BME280;61560;33.718;73.040;2023-05-01T09:43:28;94397.81;;;25.46;53.33
73332;BME280;61560;33.718;73.040;2023-05-01T09:46:02;94410.78;;;25.54;53.06
73332;BME280;61560;33.718;73.040;2023-05-01T09:48:32;94390.00;;;25.28;52.03
73332;BME280;61560;33.718;73.040;2023-05-01T09:50:59;94393.09;;;25.24;53.35
73332;BME280;61560;33.718;73.040;2023-05-01T09:53:39;94384.44;;;25.16;52.99
73332;BME280;61560;33.718;73.040;2023-05-01T09:56:06;94373.53;;;25.13;52.65
73332;BME280;61560;33.718;73.040;2023-05-01T09:58:36;94379.38;;;25.15;52.15
73332;BME280;61560;33.718;73.040;2023-05-01T10:01:17;94370.97;;;25.15;51.11
73332;BME280;61560;33.718;73.040;2023-05-01T10:03:56;94359.22;;;25.22;50.50
73332;BME280;61560;33.718;73.040;2023-05-01T10:06:27;94359.41;;;25.30;50.67
73332;BME280;61560;33.718;73.040;2023-05-01T10:08:54;94354.81;;;25.32;51.11
73332;BME280;61560;33.718;73.040;2023-05-01T10:11:22;94352.56;;;25.25;51.48
73332;BME280;61560;33.718;73.040;2023-05-01T10:14:05;94334.13;;;25.00;52.19
73332;BME280;61560;33.718;73.040;2023-05-01T10:16:41;94330.94;;;25.20;50.75
73332;BME280;61560;33.718;73.040;2023-05-01T10:19:09;94312.22;;;25.34;50.95
73332;BME280;61560;33.718;73.040;2023-05-01T10:21:36;94313.69;;;25.46;51.08
73332;BME280;61560;33.718;73.040;2023-05-01T10:24:03;94316.19;;;25.49;50.31
73332;BME280;61560;33.718;73.040;2023-05-01T10:26:32;94327.47;;;25.44;50.01
73332;BME280;61560;33.718;73.040;2023-05-01T10:29:03;94319.38;;;25.35;50.27
73332;BME280;61560;33.718;73.040;2023-05-01T10:31:29;94331.63;;;25.32;49.53
73332;BME280;61560;33.718;73.040;2023-05-01T10:33:58;94329.13;;;25.23;50.44
73332;BME280;61560;33.718;73.040;2023-05-01T10:36:35;94326.84;;;25.21;49.76
73332;BME280;61560;33.718;73.040;2023-05-01T10:39:03;94332.72;;;25.17;50.04
73332;BME280;61560;33.718;73.040;2023-05-01T10:42:06;94333.56;;;25.07;49.13
73332;BME280;61560;33.718;73.040;2023-05-01T10:44:36;94320.34;;;25.02;49.94
73332;BME280;61560;33.718;73.040;2023-05-01T10:55:39;94311.19;;;25.01;50.57
73332;BME280;61560;33.718;73.040;2023-05-01T10:58:11;94305.00;;;25.08;50.32
73332;BME280;61560;33.718;73.040;2023-05-01T11:00:39;94289.78;;;25.04;50.39
73332;BME280;61560;33.718;73.040;2023-05-01T11:06:08;94272.50;;;24.94;50.29
73332;BME280;61560;33.718;73.040;2023-05-01T11:08:37;94268.91;;;24.94;50.50
73332;BME280;61560;33.718;73.040;2023-05-01T11:13:58;94245.47;;;24.97;51.48
73332;BME280;61560;33.718;73.040;2023-05-01T11:19:03;94231.34;;;25.13;51.46
73332;BME280;61560;33.718;73.040;2023-05-01T11:21:30;94230.03;;;25.20;50.84
73332;BME280;61560;33.718;73.040;2023-05-01T11:24:00;94229.19;;;25.31;50.48
73332;BME280;61560;33.718;73.040;2023-05-01T11:26:28;94225.59;;;25.30;49.48
73332;BME280;61560;33.718;73.040;2023-05-01T11:28:58;94215.41;;;25.27;49.69
73332;BME280;61560;33.718;73.040;2023-05-01T11:31:25;94212.13;;;25.29;49.63
73332;BME280;61560;33.718;73.040;2023-05-01T11:33:59;94201.38;;;25.33;49.72
73332;BME280;61560;33.718;73.040;2023-05-01T11:36:28;94194.28;;;25.26;50.11
73332;BME280;61560;33.718;73.040;2023-05-01T11:38:57;94196.03;;;25.29;50.43
73332;BME280;61560;33.718;73.040;2023-05-01T11:41:25;94195.31;;;25.29;50.07
73332;BME280;61560;33.718;73.040;2023-05-01T11:43:56;94188.41;;;25.30;50.97
73332;BME280;61560;33.718;73.040;2023-05-01T11:46:28;94191.25;;;25.24;52.47
73332;BME280;61560;33.718;73.040;2023-05-01T11:48:56;94198.19;;;25.17;53.14
73332;BME280;61560;33.718;73.040;2023-05-01T11:51:24;94194.72;;;25.06;53.35
73332;BME280;61560;33.718;73.040;2023-05-01T11:54:08;94193.25;;;24.99;52.83
73332;BME280;61560;33.718;73.040;2023-05-01T11:56:37;94201.19;;;24.95;52.61
73332;BME280;61560;33.718;73.040;2023-05-01T11:59:23;94196.06;;;24.94;53.33
73332;BME280;61560;33.718;73.040;2023-05-01T12:01:51;94207.81;;;24.92;53.32
73332;BME280;61560;33.718;73.040;2023-05-01T12:04:25;94210.13;;;24.88;53.91
73332;BME280;61560;33.718;73.040;2023-05-01T12:06:56;94217.03;;;24.87;53.42
73332;BME280;61560;33.718;73.040;2023-05-01T12:09:24;94218.78;;;24.90;53.63
73332;BME280;61560;33.718;73.040;2023-05-01T12:11:52;94212.94;;;24.88;53.37
73332;BME280;61560;33.718;73.040;2023-05-01T12:14:19;94208.16;;;24.83;53.18
73332;BME280;61560;33.718;73.040;2023-05-01T12:16:49;94226.47;;;24.84;53.55
73332;BME280;61560;33.718;73.040;2023-05-01T12:19:16;94220.84;;;24.84;53.79
73332;BME280;61560;33.718;73.040;2023-05-01T12:21:43;94227.22;;;24.85;53.54
73332;BME280;61560;33.718;73.040;2023-05-01T12:24:17;94222.41;;;24.85;53.91
73332;BME280;61560;33.718;73.040;2023-05-01T12:26:44;94226.97;;;24.83;54.13
73332;BME280;61560;33.718;73.040;2023-05-01T12:29:11;94224.72;;;24.81;53.73
73332;BME280;61560;33.718;73.040;2023-05-01T12:31:47;94214.53;;;24.78;53.91
73332;BME280;61560;33.718;73.040;2023-05-01T12:34:14;94220.66;;;24.77;53.65
73332;BME280;61560;33.718;73.040;2023-05-01T12:36:40;94227.03;;;24.72;54.07
73332;BME280;61560;33.718;73.040;2023-05-01T12:39:09;94232.66;;;24.66;54.50
73332;BME280;61560;33.718;73.040;2023-05-01T12:41:45;94235.75;;;24.63;54.38
73332;BME280;61560;33.718;73.040;2023-05-01T12:44:20;94241.34;;;24.63;54.17
73332;BME280;61560;33.718;73.040;2023-05-01T12:47:04;94249.22;;;24.64;53.59
73332;BME280;61560;33.718;73.040;2023-05-01T12:49:36;94242.09;;;24.63;54.09
73332;BME280;61560;33.718;73.040;2023-05-01T12:52:07;94248.50;;;24.58;54.71
73332;BME280;61560;33.718;73.040;2023-05-01T12:54:38;94240.88;;;24.53;55.37
73332;BME280;61560;33.718;73.040;2023-05-01T12:57:12;94238.09;;;24.48;55.55
73332;BME280;61560;33.718;73.040;2023-05-01T12:59:43;94244.00;;;24.44;55.87
73332;BME280;61560;33.718;73.040;2023-05-01T13:02:16;94248.09;;;24.37;57.53
73332;BME280;61560;33.718;73.040;2023-05-01T13:04:43;94251.16;;;24.34;58.00
73332;BME280;61560;33.718;73.040;2023-05-01T13:07:17;94264.91;;;24.32;58.75
73332;BME280;61560;33.718;73.040;2023-05-01T13:09:58;94272.56;;;24.26;59.78
73332;BME280;61560;33.718;73.040;2023-05-01T13:12:26;94270.31;;;24.19;60.22
73332;BME280;61560;33.718;73.040;2023-05-01T13:14:53;94285.06;;;24.19;60.66
73332;BME280;61560;33.718;73.040;2023-05-01T13:17:31;94293.47;;;24.14;61.30
73332;BME280;61560;33.718;73.040;2023-05-01T13:20:10;94295.75;;;24.10;61.54
73332;BME280;61560;33.718;73.040;2023-05-01T13:22:40;94297.31;;;24.05;61.16
73332;BME280;61560;33.718;73.040;2023-05-01T13:25:18;94310.28;;;23.97;61.43
73332;BME280;61560;33.718;73.040;2023-05-01T13:27:50;94313.84;;;23.92;61.58
73332;BME280;61560;33.718;73.040;2023-05-01T13:30:20;94327.06;;;23.86;61.24
73332;BME280;61560;33.718;73.040;2023-05-01T13:32:57;94327.31;;;23.77;61.13
73332;BME280;61560;33.718;73.040;2023-05-01T13:35:24;94339.03;;;23.76;60.72
73332;BME280;61560;33.718;73.040;2023-05-01T13:37:52;94339.28;;;23.72;60.34
73332;BME280;61560;33.718;73.040;2023-05-01T13:40:19;94338.28;;;23.58;60.55
73332;BME280;61560;33.718;73.040;2023-05-01T13:42:51;94348.47;;;23.56;60.77
73332;BME280;61560;33.718;73.040;2023-05-01T13:45:19;94343.88;;;23.53;60.34